Time;durP1;ratioP1;P1;durP2;ratioP2;P2;SDS_P1;SDS_P2;PMS_P1;PMS_P2;Temp;Humidity;BMP_temperature;BMP_pressure;BME280_temperature;BME280_humidity;BME280_pressure;Samples;Min_cycle;Max_cycle;Signal;HPM_P1;HPM_P2
2023/08/17 00:01:32;;;;;;;5.00;2.30;;;;;;;18.90;100.00;101791.38;5291503;28;20065;-67
2023/08/17 00:04:04;;;;;;;5.72;2.70;;;;;;;18.85;100.00;101792.81;5288843;28;20406;-67
2023/08/17 00:06:35;;;;;;;6.07;2.60;;;;;;;18.83;100.00;101793.00;5294737;28;20100;-68
2023/08/17 00:09:07;;;;;;;5.03;2.42;;;;;;;18.80;100.00;101791.41;5292290;28;20050;-67
2023/08/17 00:11:38;;;;;;;5.70;2.50;;;;;;;18.80;100.00;101785.19;5288616;28;20040;-68
2023/08/17 00:14:10;;;;;;;5.90;2.28;;;;;;;18.79;100.00;101795.13;5290578;28;20363;-68
2023/08/17 00:16:41;;;;;;;4.55;2.47;;;;;;;18.74;100.00;101786.59;5299704;28;20028;-68
2023/08/17 00:19:12;;;;;;;7.28;2.47;;;;;;;18.73;100.00;101786.72;5288576;28;20024;-68
2023/08/17 00:21:45;;;;;;;4.88;2.17;;;;;;;18.73;100.00;101778.63;5297374;28;20084;-68
2023/08/17 00:24:16;;;;;;;8.00;2.50;;;;;;;18.66;100.00;101788.31;5285409;28;20050;-68
2023/08/17 00:26:48;;;;;;;4.85;2.10;;;;;;;18.66;100.00;101777.50;5296532;28;20031;-68
2023/08/17 00:29:19;;;;;;;4.25;2.47;;;;;;;18.58;100.00;101775.53;5286259;28;20028;-68
2023/08/17 00:31:52;;;;;;;5.10;2.65;;;;;;;18.51;100.00;101777.97;5295900;28;20032;-67
2023/08/17 00:34:23;;;;;;;7.22;2.13;;;;;;;18.47;100.00;101779.28;5288040;28;20024;-68
2023/08/17 00:36:54;;;;;;;5.95;2.47;;;;;;;18.48;100.00;101775.56;5295530;28;20020;-68
2023/08/17 00:39:26;;;;;;;4.05;2.05;;;;;;;18.46;100.00;101777.56;5286097;28;20211;-68
2023/08/17 00:41:57;;;;;;;5.03;2.53;;;;;;;18.39;100.00;101781.88;5287772;28;20027;-68
2023/08/17 00:44:28;;;;;;;6.68;2.20;;;;;;;18.34;100.00;101778.75;5286775;28;20032;-68
2023/08/17 00:47:00;;;;;;;5.95;2.30;;;;;;;18.33;100.00;101787.81;5294059;28;20032;-68
2023/08/17 00:49:32;;;;;;;3.85;1.92;;;;;;;18.31;100.00;101781.72;5286366;28;20751;-68
2023/08/17 00:52:05;;;;;;;5.22;2.40;;;;;;;18.30;100.00;101782.72;5288479;28;20500;-68
2023/08/17 00:54:37;;;;;;;4.72;2.40;;;;;;;18.22;100.00;101784.31;5287302;28;20036;-68
2023/08/17 00:57:09;;;;;;;6.30;2.30;;;;;;;18.26;100.00;101787.56;5290909;28;20079;-68
2023/08/17 00:59:41;;;;;;;4.93;2.30;;;;;;;18.28;100.00;101796.38;5282660;28;20956;-68
2023/08/17 01:02:12;;;;;;;5.97;2.58;;;;;;;18.29;100.00;101795.38;5284051;28;20052;-68
2023/08/17 01:04:43;;;;;;;4.35;2.50;;;;;;;18.26;100.00;101794.84;5282559;28;20036;-68
2023/08/17 01:07:15;;;;;;;4.80;2.30;;;;;;;18.25;100.00;101802.06;5284495;28;20067;-68
2023/08/17 01:09:46;;;;;;;7.25;2.47;;;;;;;18.27;100.00;101805.47;5287551;28;20077;-68
2023/08/17 01:12:36;;;;;;;6.50;2.70;;;;;;;18.29;100.00;101799.94;5285069;28;20050;-68
2023/08/17 01:15:10;;;;;;;6.78;2.10;;;;;;;18.29;100.00;101789.13;5282979;28;20118;-68
2023/08/17 01:18:16;;;;;;;5.30;2.55;;;;;;;18.29;100.00;101789.97;5291877;28;20110;-68
2023/08/17 01:20:49;;;;;;;7.60;2.70;;;;;;;18.24;100.00;101786.88;5289499;28;20580;-68
2023/08/17 01:23:22;;;;;;;4.30;2.53;;;;;;;18.21;100.00;101782.59;5283791;28;20495;-68
2023/08/17 01:25:53;;;;;;;5.88;2.20;;;;;;;18.21;100.00;101787.97;5282903;28;20036;-68
2023/08/17 01:28:26;;;;;;;5.80;2.35;;;;;;;18.20;100.00;101790.84;5280643;28;20032;-68
2023/08/17 01:31:25;;;;;;;6.55;2.50;;;;;;;18.22;100.00;101792.41;5283927;28;20059;-68
2023/08/17 01:34:03;;;;;;;6.05;2.65;;;;;;;18.14;100.00;101781.47;5286384;28;20040;-68
2023/08/17 01:36:43;;;;;;;6.53;2.50;;;;;;;18.14;100.00;101780.59;5282136;28;20486;-68
2023/08/17 01:39:17;;;;;;;5.90;2.05;;;;;;;18.08;100.00;101784.72;5282185;28;20027;-68
2023/08/17 01:41:49;;;;;;;7.53;2.80;;;;;;;18.09;100.00;101780.19;5286815;28;20028;-68
2023/08/17 01:44:20;;;;;;;6.38;2.30;;;;;;;18.07;100.00;101779.50;5284497;28;20089;-68
2023/08/17 01:46:53;;;;;;;4.75;2.40;;;;;;;18.04;100.00;101772.50;5282661;28;20025;-68
2023/08/17 01:49:24;;;;;;;7.82;2.50;;;;;;;18.08;100.00;101768.53;5284930;28;20038;-68
2023/08/17 01:51:55;;;;;;;5.78;2.35;;;;;;;18.06;100.00;101767.81;5294677;28;20035;-68
2023/08/17 01:54:27;;;;;;;6.75;2.97;;;;;;;18.09;100.00;101767.53;5293404;28;20029;-67
2023/08/17 01:56:58;;;;;;;4.63;2.70;;;;;;;18.11;100.00;101768.25;5292330;28;20785;-68
2023/08/17 01:59:30;;;;;;;5.40;2.70;;;;;;;18.04;100.00;101772.50;5288713;28;20470;-68
2023/08/17 02:02:01;;;;;;;6.65;3.00;;;;;;;18.00;100.00;101760.28;5295687;28;20494;-68
2023/08/17 02:04:32;;;;;;;7.38;2.92;;;;;;;17.97;100.00;101761.44;5288499;28;20020;-68
2023/08/17 02:07:04;;;;;;;8.30;3.63;;;;;;;17.96;100.00;101769.69;5295351;28;20859;-67
2023/08/17 02:09:35;;;;;;;13.63;2.92;;;;;;;17.93;100.00;101769.97;5289807;28;20036;-68
2023/08/17 02:12:08;;;;;;;7.90;3.28;;;;;;;17.90;100.00;101772.97;5282715;28;20091;-68
2023/08/17 02:14:39;;;;;;;6.40;3.20;;;;;;;17.91;100.00;101777.34;5292966;28;20036;-68
2023/08/17 02:17:11;;;;;;;6.68;3.10;;;;;;;17.97;100.00;101782.22;5288265;28;20039;-68
2023/08/17 02:19:43;;;;;;;4.78;2.88;;;;;;;17.99;100.00;101783.75;5290692;28;20032;-68
2023/08/17 02:22:15;;;;;;;6.40;3.28;;;;;;;17.87;100.00;101775.94;5293454;28;20100;-68
2023/08/17 02:24:47;;;;;;;7.00;3.15;;;;;;;17.96;100.00;101778.63;5294803;28;20028;-68
2023/08/17 02:27:18;;;;;;;7.50;2.90;;;;;;;17.88;100.00;101774.94;5298035;28;20027;-68
2023/08/17 02:29:50;;;;;;;5.60;2.88;;;;;;;17.86;100.00;101772.38;5291221;27;20117;-68
2023/08/17 02:32:21;;;;;;;5.63;2.85;;;;;;;17.85;100.00;101778.78;5287857;28;20110;-67
2023/08/17 02:34:53;;;;;;;6.35;3.03;;;;;;;17.83;100.00;101773.50;5294903;28;20039;-68
2023/08/17 02:37:24;;;;;;;8.75;2.78;;;;;;;17.86;100.00;101763.44;5297208;28;20024;-68
2023/08/17 02:39:55;;;;;;;7.40;2.72;;;;;;;17.81;100.00;101771.91;5293172;28;20039;-68
2023/08/17 02:42:27;;;;;;;6.28;2.35;;;;;;;17.86;100.00;101771.53;5302335;28;20031;-68
2023/08/17 02:44:58;;;;;;;6.38;2.63;;;;;;;17.90;100.00;101767.56;5299079;28;20115;-68
2023/08/17 02:47:30;;;;;;;8.70;2.97;;;;;;;17.82;100.00;101765.53;5290333;28;20181;-68
2023/08/17 02:50:01;;;;;;;7.40;3.28;;;;;;;17.91;100.00;101771.94;5284671;28;20040;-68
2023/08/17 02:52:33;;;;;;;8.48;3.33;;;;;;;17.83;100.00;101759.13;5294705;28;20040;-68
2023/08/17 02:55:05;;;;;;;4.57;3.00;;;;;;;17.90;100.00;101771.09;5296462;28;20025;-68
2023/08/17 02:57:37;;;;;;;8.10;2.97;;;;;;;17.83;100.00;101764.53;5293361;28;20038;-68
2023/08/17 03:00:09;;;;;;;5.28;2.53;;;;;;;17.83;100.00;101768.09;5287852;28;20016;-68
2023/08/17 03:02:40;;;;;;;8.75;2.70;;;;;;;17.78;100.00;101766.81;5292184;28;20441;-68
2023/08/17 03:05:12;;;;;;;5.72;2.55;;;;;;;17.79;100.00;101758.56;5293220;28;20387;-68
2023/08/17 03:07:43;;;;;;;4.38;2.40;;;;;;;17.86;100.00;101758.91;5296905;28;20107;-68
2023/08/17 03:10:14;;;;;;;6.28;2.42;;;;;;;17.80;100.00;101759.44;5297299;28;20048;-68
2023/08/17 03:12:46;;;;;;;6.05;2.30;;;;;;;17.74;100.00;101757.31;5295426;28;20558;-68
2023/08/17 03:15:17;;;;;;;6.78;2.50;;;;;;;17.74;100.00;101757.31;5288371;28;20031;-68
2023/08/17 03:17:49;;;;;;;7.97;2.60;;;;;;;17.69;100.00;101755.03;5295325;28;20019;-68
2023/08/17 03:20:20;;;;;;;5.82;2.35;;;;;;;17.69;100.00;101752.31;5292208;28;20469;-69
2023/08/17 03:22:51;;;;;;;4.80;2.30;;;;;;;17.70;100.00;101754.03;5286081;28;20032;-69
2023/08/17 03:25:23;;;;;;;4.93;1.90;;;;;;;17.67;100.00;101754.31;5288482;28;20055;-69
2023/08/17 03:27:54;;;;;;;6.35;2.00;;;;;;;17.71;100.00;101753.03;5292638;28;20028;-70
2023/08/17 03:30:26;;;;;;;5.07;2.20;;;;;;;17.65;100.00;101753.59;5284500;28;20035;-69
2023/08/17 03:32:57;;;;;;;7.35;2.70;;;;;;;17.63;100.00;101750.19;5297111;28;20043;-69
2023/08/17 03:35:29;;;;;;;6.05;2.75;;;;;;;17.59;100.00;101756.88;5278768;28;20122;-69
2023/08/17 03:38:00;;;;;;;5.25;2.88;;;;;;;17.62;100.00;101754.75;5288831;28;20031;-68
2023/08/17 03:40:32;;;;;;;4.40;2.58;;;;;;;17.51;100.00;101751.31;5279717;28;20028;-69
2023/08/17 03:43:03;;;;;;;6.85;2.60;;;;;;;17.44;100.00;101754.56;5281637;28;20470;-69
2023/08/17 03:45:35;;;;;;;5.20;2.92;;;;;;;17.52;100.00;101745.78;5280980;28;20319;-68
2023/08/17 03:48:07;;;;;;;6.50;2.58;;;;;;;17.47;100.00;101755.28;5282384;28;20043;-69
2023/08/17 03:50:38;;;;;;;4.57;2.53;;;;;;;17.42;100.00;101751.16;5287398;28;20030;-69
2023/08/17 03:53:09;;;;;;;5.72;2.83;;;;;;;17.43;100.00;101752.88;5286697;28;20197;-69
2023/08/17 03:55:46;;;;;;;5.60;2.58;;;;;;;17.42;100.00;101750.31;5288853;28;20650;-69
2023/08/17 03:58:18;;;;;;;4.45;2.45;;;;;;;17.29;100.00;101747.88;5288782;28;20085;-69
2023/08/17 04:00:51;;;;;;;7.30;2.55;;;;;;;17.33;100.00;101768.19;5283937;28;20513;-68
2023/08/17 04:03:22;;;;;;;6.03;2.80;;;;;;;17.23;100.00;101761.94;5296769;28;20067;-69
2023/08/17 04:05:53;;;;;;;5.00;2.50;;;;;;;17.20;100.00;101768.47;5285673;28;20104;-68
2023/08/17 04:08:25;;;;;;;7.32;2.92;;;;;;;17.24;100.00;101771.75;5286381;28;20038;-69
2023/08/17 04:10:56;;;;;;;4.55;2.30;;;;;;;17.23;100.00;101775.41;5284430;28;20081;-69
2023/08/17 04:13:28;;;;;;;6.28;2.95;;;;;;;17.14;100.00;101768.97;5285460;28;20138;-68
2023/08/17 04:15:59;;;;;;;5.75;2.80;;;;;;;17.14;100.00;101781.63;5281327;28;20060;-69
2023/08/17 04:18:31;;;;;;;5.13;2.92;;;;;;;17.15;100.00;101780.66;5299157;28;20315;-69
2023/08/17 04:21:02;;;;;;;7.05;2.60;;;;;;;17.16;100.00;101779.63;5282761;28;20434;-68
2023/08/17 04:23:34;;;;;;;7.15;2.85;;;;;;;17.11;100.00;101776.53;5287485;28;20032;-69
2023/08/17 04:26:05;;;;;;;7.03;3.10;;;;;;;17.07;100.00;101773.25;5285238;28;20466;-68
2023/08/17 04:28:36;;;;;;;6.43;3.28;;;;;;;17.16;100.00;101785.03;5285285;28;20612;-69
2023/08/17 04:31:08;;;;;;;6.45;2.58;;;;;;;17.03;100.00;101788.84;5300040;28;20089;-69
2023/08/17 04:33:40;;;;;;;8.10;2.90;;;;;;;17.00;100.00;101785.56;5294777;28;20112;-68
2023/08/17 04:36:11;;;;;;;5.18;3.03;;;;;;;16.97;100.00;101788.50;5299897;28;20140;-69
2023/08/17 04:38:43;;;;;;;6.82;2.97;;;;;;;16.97;100.00;101785.81;5291203;28;20024;-69
2023/08/17 04:41:14;;;;;;;5.32;2.83;;;;;;;16.92;100.00;101788.94;5283928;28;20052;-69
2023/08/17 04:43:46;;;;;;;5.32;2.67;;;;;;;16.95;100.00;101785.09;5288911;28;20063;-69
2023/08/17 04:46:18;;;;;;;6.43;2.92;;;;;;;16.87;100.00;101777.69;5292566;28;20523;-69
2023/08/17 04:48:49;;;;;;;6.20;2.90;;;;;;;16.94;100.00;101784.25;5284131;28;20441;-69
2023/08/17 04:51:21;;;;;;;5.75;3.13;;;;;;;16.92;100.00;101780.84;5289727;28;20034;-68
2023/08/17 04:53:53;;;;;;;6.35;2.63;;;;;;;16.85;100.00;101783.22;5303844;28;20028;-69
2023/08/17 04:56:24;;;;;;;8.52;2.50;;;;;;;16.84;100.00;101784.22;5310232;28;20678;-69
2023/08/17 04:58:56;;;;;;;5.28;2.58;;;;;;;16.88;100.00;101781.28;5296165;28;20128;-68
2023/08/17 05:01:27;;;;;;;6.22;2.80;;;;;;;16.85;100.00;101774.28;5286724;28;20406;-69
2023/08/17 05:03:59;;;;;;;7.25;2.92;;;;;;;16.82;100.00;101779.97;5289172;28;20035;-69
2023/08/17 05:06:30;;;;;;;5.32;2.90;;;;;;;16.83;100.00;101784.34;5291680;28;20040;-69
2023/08/17 05:09:02;;;;;;;6.15;2.65;;;;;;;16.83;100.00;101782.50;5291334;28;20487;-69
2023/08/17 05:11:33;;;;;;;6.10;2.78;;;;;;;16.84;100.00;101780.69;5293372;28;20036;-68
2023/08/17 05:14:04;;;;;;;6.03;3.03;;;;;;;16.82;100.00;101780.81;5289993;28;20029;-68
2023/08/17 05:16:36;;;;;;;5.40;2.70;;;;;;;16.81;100.00;101775.50;5291795;28;20024;-68
2023/08/17 05:19:07;;;;;;;5.45;2.80;;;;;;;16.88;100.00;101781.28;5297798;28;20020;-69
2023/08/17 05:21:38;;;;;;;8.85;3.03;;;;;;;16.90;100.00;101780.13;5287523;28;21472;-69
2023/08/17 05:24:10;;;;;;;7.22;3.08;;;;;;;16.98;100.00;101779.44;5295239;28;20127;-69
2023/08/17 05:26:41;;;;;;;5.93;2.40;;;;;;;16.91;100.00;101776.44;5288534;28;20034;-69
2023/08/17 05:29:13;;;;;;;8.50;3.17;;;;;;;16.95;100.00;101780.59;5295232;28;20133;-69
2023/08/17 05:31:44;;;;;;;4.43;2.75;;;;;;;17.01;100.00;101779.19;5290998;28;20025;-68
2023/08/17 05:34:16;;;;;;;7.38;2.78;;;;;;;17.05;100.00;101775.22;5295872;28;20035;-69
2023/08/17 05:36:47;;;;;;;6.80;2.75;;;;;;;17.11;100.00;101787.31;5294641;28;20024;-69
2023/08/17 05:39:19;;;;;;;6.72;3.05;;;;;;;17.15;100.00;101778.78;5291778;28;20032;-69
2023/08/17 05:41:51;;;;;;;6.10;2.70;;;;;;;17.11;100.00;101779.22;5296869;28;20032;-69
2023/08/17 05:44:22;;;;;;;6.40;3.00;;;;;;;17.12;100.00;101787.16;5288730;28;20076;-69
2023/08/17 05:46:54;;;;;;;6.45;3.22;;;;;;;17.13;100.00;101791.56;5290245;28;20410;-69
2023/08/17 05:49:25;;;;;;;6.00;2.97;;;;;;;17.20;100.00;101789.16;5303960;28;20024;-69
2023/08/17 05:51:56;;;;;;;5.53;3.10;;;;;;;17.21;100.00;101793.56;5289366;28;20135;-69
2023/08/17 05:54:28;;;;;;;6.85;2.90;;;;;;;17.21;100.00;101791.72;5289855;28;20371;-69
2023/08/17 05:56:59;;;;;;;5.00;2.97;;;;;;;17.38;100.00;101794.75;5294945;28;20458;-69
2023/08/17 05:59:31;;;;;;;7.97;3.05;;;;;;;17.30;100.00;101789.22;5291620;28;20097;-69
2023/08/17 06:02:02;;;;;;;6.10;3.00;;;;;;;17.26;100.00;101794.03;5286884;28;20052;-69
2023/08/17 06:04:33;;;;;;;6.32;3.10;;;;;;;17.30;100.00;101794.59;5294297;28;20042;-71
2023/08/17 06:07:06;;;;;;;4.93;3.40;;;;;;;17.40;100.00;101804.41;5294705;28;20031;-69
2023/08/17 06:09:37;;;;;;;7.68;3.22;;;;;;;17.53;100.00;101801.47;5287922;28;20511;-69
2023/08/17 06:12:09;;;;;;;5.20;3.40;;;;;;;17.47;100.00;101798.44;5280020;28;20107;-69
2023/08/17 06:14:41;;;;;;;6.80;3.40;;;;;;;17.47;100.00;101802.03;5284753;28;20108;-70
2023/08/17 06:17:13;;;;;;;9.18;3.90;;;;;;;17.49;100.00;101809.97;5308508;28;20031;-69
2023/08/17 06:19:44;;;;;;;8.05;3.80;;;;;;;17.52;100.00;101807.00;5296408;28;20038;-69
2023/08/17 06:22:16;;;;;;;7.60;3.53;;;;;;;17.53;100.00;101809.56;5289179;28;20027;-69
2023/08/17 06:24:47;;;;;;;7.45;3.47;;;;;;;17.57;100.00;101799.34;5284841;28;20492;-69
2023/08/17 06:27:19;;;;;;;6.30;3.80;;;;;;;17.60;100.00;101801.75;5300067;28;20091;-69
2023/08/17 06:29:50;;;;;;;6.10;3.95;;;;;;;17.58;100.00;101812.66;5290181;28;20393;-69
2023/08/17 06:32:22;;;;;;;7.82;3.45;;;;;;;17.52;100.00;101799.75;5301598;28;20039;-69
2023/08/17 06:34:54;;;;;;;7.47;3.70;;;;;;;17.49;100.00;101799.16;5296622;28;20025;-69
2023/08/17 06:37:25;;;;;;;6.72;3.35;;;;;;;17.43;100.00;101805.97;5292172;28;20025;-68
2023/08/17 06:39:57;;;;;;;6.15;3.25;;;;;;;17.50;100.00;101808.97;5292020;28;20020;-69
2023/08/17 06:42:28;;;;;;;8.13;4.03;;;;;;;17.43;100.00;101811.38;5295288;28;20350;-69
2023/08/17 06:44:59;;;;;;;5.97;3.70;;;;;;;17.44;100.00;101811.22;5285867;28;20418;-69
2023/08/17 06:47:31;;;;;;;7.05;3.70;;;;;;;17.50;100.00;101806.28;5311322;28;20035;-69
2023/08/17 06:50:03;;;;;;;9.45;4.05;;;;;;;17.51;100.00;101818.75;5308536;28;20389;-69
2023/08/17 06:52:34;;;;;;;6.78;3.80;;;;;;;17.63;100.00;101817.66;5286513;28;20028;-69
2023/08/17 06:55:06;;;;;;;7.63;3.63;;;;;;;17.70;100.00;101816.13;5298602;28;20027;-69
2023/08/17 06:57:37;;;;;;;8.20;3.90;;;;;;;17.78;100.00;101812.72;5301989;27;20028;-69
2023/08/17 07:00:11;;;;;;;8.60;4.20;;;;;;;17.89;100.00;101809.03;5290235;28;20027;-69
2023/08/17 07:02:42;;;;;;;7.60;3.88;;;;;;;17.97;100.00;101810.06;5293873;28;20031;-70
2023/08/17 07:05:18;;;;;;;7.80;4.18;;;;;;;18.05;100.00;101812.03;5293712;28;20077;-69
2023/08/17 07:07:49;;;;;;;9.27;5.03;;;;;;;18.10;100.00;101809.78;5290755;28;20028;-68
2023/08/17 07:10:21;;;;;;;8.63;4.47;;;;;;;18.11;100.00;101807.91;5282570;28;20094;-69
2023/08/17 07:12:53;;;;;;;9.30;4.22;;;;;;;18.09;100.00;101816.16;5279773;28;20103;-69
2023/08/17 07:15:24;;;;;;;7.68;4.00;;;;;;;18.04;100.00;101802.22;5277249;28;20401;-69
2023/08/17 07:17:56;;;;;;;6.95;4.32;;;;;;;18.06;100.00;101812.88;5282111;28;20027;-69
2023/08/17 07:20:27;;;;;;;6.93;4.15;;;;;;;18.05;100.00;101814.75;5289932;28;20063;-69
2023/08/17 07:22:59;;;;;;;12.18;4.40;;;;;;;18.08;100.00;101817.13;5285049;28;20860;-69
2023/08/17 07:25:30;;;;;;;6.43;4.30;;;;;;;18.10;100.00;101814.28;5288447;28;20024;-69
2023/08/17 07:28:01;;;;;;;9.65;4.60;;;;;;;18.21;100.00;101816.84;5280953;28;20030;-69
2023/08/17 07:30:33;;;;;;;10.45;3.83;;;;;;;18.18;100.00;101812.59;5294255;28;20480;-69
2023/08/17 07:33:04;;;;;;;6.40;4.00;;;;;;;18.32;100.00;101816.69;5290223;28;20048;-69
2023/08/17 07:35:36;;;;;;;10.02;4.80;;;;;;;18.34;100.00;101812.00;5292182;28;20038;-69
2023/08/17 07:38:07;;;;;;;10.13;4.30;;;;;;;18.36;100.00;101814.56;5298075;28;20111;-70
2023/08/17 07:40:38;;;;;;;8.65;4.15;;;;;;;18.47;100.00;101803.59;5291667;27;20035;-71
2023/08/17 07:43:10;;;;;;;8.25;4.25;;;;;;;18.48;100.00;101812.53;5291306;28;20067;-69
2023/08/17 07:45:41;;;;;;;8.70;3.80;;;;;;;18.50;100.00;101816.81;5288489;28;20445;-69
2023/08/17 07:48:13;;;;;;;6.18;3.67;;;;;;;18.51;100.00;101815.81;5306598;28;20059;-69
2023/08/17 07:50:49;;;;;;;8.32;3.83;;;;;;;18.55;100.00;101816.38;5292528;28;20363;-69
2023/08/17 07:53:20;;;;;;;8.43;4.07;;;;;;;18.54;100.00;101815.53;5299589;28;20032;-70
2023/08/17 07:55:51;;;;;;;10.70;4.43;;;;;;;18.67;100.00;101819.75;5288258;28;20025;-69
2023/08/17 07:58:23;;;;;;;7.53;3.72;;;;;;;18.77;100.00;101818.75;5299404;28;20032;-69
2023/08/17 08:00:54;;;;;;;12.07;3.95;;;;;;;18.89;100.00;101824.84;5292009;28;20060;-69
2023/08/17 08:03:26;;;;;;;7.90;3.47;;;;;;;18.90;100.00;101821.13;5293208;28;20028;-69
2023/08/17 08:05:57;;;;;;;7.55;4.05;;;;;;;19.02;100.00;101819.09;5290655;28;20396;-69
2023/08/17 08:08:28;;;;;;;9.32;4.22;;;;;;;18.99;100.00;101816.69;5293943;28;20020;-69
2023/08/17 08:11:00;;;;;;;7.05;3.88;;;;;;;19.02;100.00;101816.38;5279990;28;20436;-69
2023/08/17 08:13:32;;;;;;;8.30;3.78;;;;;;;19.03;100.00;101814.56;5288913;28;20036;-69
2023/08/17 08:16:03;;;;;;;9.60;3.83;;;;;;;19.07;100.00;101808.69;5289218;28;20021;-68
2023/08/17 08:18:35;;;;;;;8.02;3.70;;;;;;;19.17;100.00;101811.34;5295095;28;20047;-69
2023/08/17 08:21:06;;;;;;;7.45;3.83;;;;;;;19.23;100.00;101813.44;5288388;28;20046;-69
2023/08/17 08:23:37;;;;;;;8.13;3.42;;;;;;;19.30;100.00;101811.84;5302426;28;20047;-69
2023/08/17 08:26:09;;;;;;;8.65;4.30;;;;;;;19.34;100.00;101807.81;5300447;28;20383;-69
2023/08/17 08:28:40;;;;;;;9.32;4.10;;;;;;;19.33;100.00;101819.66;5288408;28;20032;-69
2023/08/17 08:31:12;;;;;;;6.47;3.53;;;;;;;19.28;100.00;101819.25;5287701;28;20047;-69
2023/08/17 08:33:43;;;;;;;5.10;3.53;;;;;;;19.29;100.00;101818.25;5301977;28;20039;-69
2023/08/17 08:36:15;;;;;;;7.95;4.28;;;;;;;19.33;100.00;101816.09;5293677;28;20545;-69
2023/08/17 08:38:46;;;;;;;6.50;4.00;;;;;;;19.38;100.00;101830.03;5281977;28;20465;-68
2023/08/17 08:41:19;;;;;;;8.10;3.90;;;;;;;19.34;100.00;101826.75;5289451;28;20070;-68
2023/08/17 08:43:51;;;;;;;7.88;3.88;;;;;;;19.39;100.00;101826.31;5295150;28;20027;-68
2023/08/17 08:46:26;;;;;;;6.47;3.65;;;;;;;19.34;100.00;101821.34;5289599;28;20039;-69
2023/08/17 08:48:58;;;;;;;9.85;4.07;;;;;;;19.25;100.00;101816.00;5283054;28;20036;-69
2023/08/17 08:51:36;;;;;;;7.97;4.00;;;;;;;19.40;100.00;101809.91;5283069;28;20030;-69
2023/08/17 08:54:12;;;;;;;6.53;3.83;;;;;;;19.34;100.00;101809.69;5290933;28;20090;-69
2023/08/17 08:56:46;;;;;;;11.90;4.65;;;;;;;19.37;100.00;101803.97;5290922;28;20020;-68
2023/08/17 08:59:19;;;;;;;7.55;3.95;;;;;;;19.38;100.00;101811.06;5295783;28;20024;-67
2023/08/17 09:01:51;;;;;;;7.68;4.28;;;;;;;19.39;100.00;101815.50;5288880;28;20075;-67
2023/08/17 09:04:23;;;;;;;8.40;4.40;;;;;;;19.31;100.00;101808.13;5293684;28;20123;-66
2023/08/17 09:06:56;;;;;;;9.35;3.95;;;;;;;19.31;100.00;101808.13;5285700;28;20394;-67
2023/08/17 09:09:27;;;;;;;9.45;4.53;;;;;;;19.38;100.00;101809.22;5288509;28;20119;-69
2023/08/17 09:11:59;;;;;;;9.50;4.53;;;;;;;19.30;100.00;101795.59;5285879;28;20032;-69
2023/08/17 09:14:30;;;;;;;9.27;4.43;;;;;;;19.30;100.00;101797.47;5284776;28;20032;-69
2023/08/17 09:17:02;;;;;;;9.38;4.80;;;;;;;19.31;100.00;101793.72;5285593;28;20089;-69
2023/08/17 09:19:33;;;;;;;8.75;5.10;;;;;;;19.31;100.00;101800.03;5287346;28;20067;-69
2023/08/17 09:22:05;;;;;;;9.05;5.18;;;;;;;19.29;100.00;101796.63;5285875;28;20058;-69
2023/08/17 09:24:36;;;;;;;10.80;5.38;;;;;;;19.31;100.00;101807.25;5293121;28;20035;-70
2023/08/17 09:27:12;;;;;;;9.52;5.63;;;;;;;19.30;100.00;101806.41;5287194;28;20035;-71
2023/08/17 09:29:45;;;;;;;7.28;4.47;;;;;;;19.27;100.00;101809.44;5295008;28;20032;-69
2023/08/17 09:32:17;;;;;;;7.55;4.93;;;;;;;19.28;100.00;101803.03;5295187;28;20046;-70
2023/08/17 09:34:49;;;;;;;11.60;5.72;;;;;;;19.29;100.00;101810.16;5277289;28;20385;-69
2023/08/17 09:37:20;;;;;;;12.05;5.65;;;;;;;19.30;100.00;101803.72;5285023;28;20039;-69
2023/08/17 09:39:52;;;;;;;10.75;5.90;;;;;;;19.18;100.00;101797.66;5285171;28;20474;-70
2023/08/17 09:42:25;;;;;;;9.18;5.15;;;;;;;19.22;100.00;101800.91;5288918;28;20074;-68
2023/08/17 09:44:57;;;;;;;12.88;5.65;;;;;;;19.34;100.00;101802.41;5294008;28;20035;-69
2023/08/17 09:47:29;;;;;;;13.82;5.45;;;;;;;19.34;100.00;101799.69;5290283;28;20021;-69
2023/08/17 09:50:01;;;;;;;12.13;5.95;;;;;;;19.38;100.00;101805.66;5281348;28;20421;-69
2023/08/17 09:52:32;;;;;;;9.32;6.32;;;;;;;19.36;100.00;101797.69;5291921;28;20077;-69
2023/08/17 09:55:06;;;;;;;12.32;5.93;;;;;;;19.39;100.00;101797.41;5287670;28;20025;-69
2023/08/17 09:57:38;;;;;;;14.73;6.47;;;;;;;19.29;100.00;101793.03;5280569;28;20063;-69
2023/08/17 10:00:10;;;;;;;11.45;5.88;;;;;;;19.34;100.00;101794.28;5279952;28;20386;-69
2023/08/17 10:02:44;;;;;;;13.18;7.25;;;;;;;19.27;100.00;101795.03;5293090;28;20113;-69
2023/08/17 10:05:18;;;;;;;11.43;6.95;;;;;;;19.35;100.00;101789.75;5283341;28;20028;-69
2023/08/17 10:07:56;;;;;;;12.75;7.05;;;;;;;19.26;100.00;101791.50;5284468;28;20447;-69
2023/08/17 10:10:29;;;;;;;11.27;7.13;;;;;;;19.24;100.00;101785.38;5284441;28;20036;-69
2023/08/17 10:13:09;;;;;;;14.65;7.72;;;;;;;19.30;100.00;101783.94;5293261;28;20088;-69
2023/08/17 10:16:02;;;;;;;11.80;6.60;;;;;;;19.34;100.00;101775.34;5284205;28;20032;-69
2023/08/17 10:18:51;;;;;;;15.17;7.67;;;;;;;19.33;100.00;101778.19;5290727;28;20028;-69
2023/08/17 10:21:53;;;;;;;14.20;7.07;;;;;;;19.37;100.00;101771.50;5286875;28;20038;-69
2023/08/17 10:24:25;;;;;;;12.55;7.20;;;;;;;19.30;100.00;101776.66;5285187;28;20073;-69
2023/08/17 10:26:57;;;;;;;14.93;7.40;;;;;;;19.30;100.00;101768.53;5282354;28;20033;-69
2023/08/17 10:29:30;;;;;;;14.70;7.38;;;;;;;19.36;100.00;101773.34;5296461;28;20119;-68
2023/08/17 10:32:02;;;;;;;13.48;7.60;;;;;;;19.27;100.00;101776.09;5299159;28;20051;-69
2023/08/17 10:34:38;;;;;;;13.68;7.85;;;;;;;19.34;100.00;101769.94;5287229;28;20490;-69
2023/08/17 10:37:10;;;;;;;13.27;7.75;;;;;;;19.29;100.00;101771.38;5288708;28;20049;-69
2023/08/17 10:39:48;;;;;;;13.48;7.15;;;;;;;19.29;100.00;101765.97;5284217;28;20039;-69
2023/08/17 10:42:36;;;;;;;11.35;7.55;;;;;;;19.35;100.00;101777.06;5289331;28;20033;-68
2023/08/17 10:45:28;;;;;;;12.02;7.47;;;;;;;19.40;100.00;101782.00;5294406;28;20111;-68
2023/08/17 10:48:09;;;;;;;14.23;8.13;;;;;;;19.37;100.00;101780.47;5283331;28;21083;-69
2023/08/17 10:50:40;;;;;;;13.18;7.15;;;;;;;19.30;100.00;101768.53;5293363;28;20036;-68
2023/08/17 10:53:15;;;;;;;12.68;7.97;;;;;;;19.26;100.00;101769.00;5285938;28;20420;-69
2023/08/17 10:55:52;;;;;;;12.50;7.50;;;;;;;19.31;100.00;101778.38;5292767;28;20035;-69
2023/08/17 10:58:23;;;;;;;12.07;7.18;;;;;;;19.31;100.00;101772.97;5285186;28;20021;-69
2023/08/17 11:00:56;;;;;;;13.23;7.55;;;;;;;19.37;100.00;101766.09;5289805;28;20059;-69
2023/08/17 11:03:28;;;;;;;14.38;7.88;;;;;;;19.39;100.00;101772.19;5291224;28;20036;-68
2023/08/17 11:06:14;;;;;;;12.63;7.65;;;;;;;19.42;100.00;101765.63;5289057;28;20450;-69
2023/08/17 11:08:55;;;;;;;13.38;8.90;;;;;;;19.46;100.00;101764.31;5290333;28;20035;-68
2023/08/17 11:11:30;;;;;;;13.52;8.40;;;;;;;19.51;100.00;101770.13;5290801;28;20027;-69
2023/08/17 11:14:02;;;;;;;13.95;8.90;;;;;;;19.57;100.00;101774.91;5291067;28;20034;-69
2023/08/17 11:16:33;;;;;;;22.38;9.88;;;;;;;19.65;100.00;101774.97;5292350;28;20028;-69
2023/08/17 11:19:05;;;;;;;14.63;9.38;;;;;;;19.70;100.00;101774.53;5287153;28;20040;-68
2023/08/17 11:21:36;;;;;;;15.52;9.85;;;;;;;19.72;100.00;101769.84;5288377;28;20085;-68
2023/08/17 11:24:10;;;;;;;13.02;9.52;;;;;;;19.84;100.00;101770.47;5288836;28;20078;-73
2023/08/17 11:26:41;;;;;;;15.35;9.82;;;;;;;19.82;100.00;101776.03;5286600;28;20060;-69
2023/08/17 11:29:13;;;;;;;13.05;8.45;;;;;;;19.73;100.00;101779.66;5286020;28;20442;-68
2023/08/17 11:31:44;;;;;;;12.52;8.48;;;;;;;19.78;100.00;101775.47;5285142;28;20032;-68
2023/08/17 11:34:16;;;;;;;18.00;9.20;;;;;;;19.84;100.00;101784.84;5288428;28;20024;-68
2023/08/17 11:36:47;;;;;;;15.98;8.77;;;;;;;19.85;100.00;101780.28;5287964;28;20505;-69
2023/08/17 11:39:20;;;;;;;13.00;8.15;;;;;;;19.92;100.00;101781.34;5287310;28;20028;-69